Time;durP1;ratioP1;P1;durP2;ratioP2;P2;SDS_P1;SDS_P2;PMS_P1;PMS_P2;Temp;Humidity;BMP_temperature;BMP_pressure;BME280_temperature;BME280_humidity;BME280_pressure;Samples;Min_cycle;Max_cycle;Signal;HPM_P1;HPM_P2
2022/09/04 00:00:11;;;;;;;;;;;16.60;99.90;;;;;;5047842;28;19943;-69
2022/09/04 00:02:38;;;;;;;;;;;16.50;99.90;;;;;;5052226;28;19921;-68
2022/09/04 00:05:24;;;;;;;;;;;16.50;99.90;;;;;;5044171;28;19920;-67
2022/09/04 00:08:04;;;;;;;;;;;16.50;99.90;;;;;;5044013;28;19921;-67
2022/09/04 00:10:35;;;;;;;;;;;16.50;99.90;;;;;;5047515;28;19921;-67
2022/09/04 00:13:22;;;;;;;;;;;16.60;99.90;;;;;;5048869;28;19921;-68
2022/09/04 00:15:49;;;;;;;;;;;16.50;99.90;;;;;;5033598;28;19928;-68
2022/09/04 00:18:16;;;;;;;;;;;16.60;99.90;;;;;;5052168;28;19920;-68
2022/09/04 00:20:43;;;;;;;;;;;16.60;99.90;;;;;;5052558;28;19939;-68
2022/09/04 00:23:12;;;;;;;;;;;16.60;99.90;;;;;;5042489;28;20457;-68
2022/09/04 00:25:41;;;;;;;;;;;16.60;99.90;;;;;;5033260;28;19921;-68
2022/09/04 00:28:10;;;;;;;;;;;16.70;99.90;;;;;;5033658;28;19925;-68
2022/09/04 00:30:39;;;;;;;;;;;16.70;99.90;;;;;;5033316;28;19921;-67
2022/09/04 00:33:09;;;;;;;;;;;16.70;99.90;;;;;;5048475;28;19921;-67
2022/09/04 00:35:37;;;;;;;;;;;16.70;99.90;;;;;;5048559;28;19928;-68
2022/09/04 00:38:20;;;;;;;;;;;16.70;99.90;;;;;;5047898;28;20288;-67
2022/09/04 00:41:05;;;;;;;;;;;16.70;99.90;;;;;;5033429;28;19947;-68
2022/09/04 00:43:35;;;;;;;;;;;16.70;99.90;;;;;;5033273;28;19920;-68
2022/09/04 00:46:11;;;;;;;;;;;16.70;99.90;;;;;;5032924;28;20004;-68
2022/09/04 00:48:41;;;;;;;;;;;16.70;99.90;;;;;;5033279;28;19933;-68
2022/09/04 00:51:23;;;;;;;;;;;16.70;99.90;;;;;;5032997;28;19928;-68
2022/09/04 00:53:53;;;;;;;;;;;16.70;99.90;;;;;;5058128;28;19921;-68
2022/09/04 00:56:39;;;;;;;;;;;16.70;99.90;;;;;;5049315;28;20395;-67
2022/09/04 00:59:08;;;;;;;;;;;16.70;99.90;;;;;;5032832;28;19921;-68
2022/09/04 01:01:35;;;;;;;;;;;16.60;99.90;;;;;;5032849;28;19925;-68
2022/09/04 01:04:17;;;;;;;;;;;16.60;99.90;;;;;;5032593;28;19925;-68
2022/09/04 01:07:02;;;;;;;;;;;16.60;99.90;;;;;;5049620;28;19979;-68
2022/09/04 01:09:45;;;;;;;;;;;16.60;99.90;;;;;;5012546;28;19928;-68
2022/09/04 01:12:16;;;;;;;;;;;16.60;99.90;;;;;;5030779;28;20015;-68
2022/09/04 01:14:54;;;;;;;;;;;16.60;99.90;;;;;;5048086;28;19952;-68
2022/09/04 01:17:32;;;;;;;;;;;16.60;99.90;;;;;;5047932;28;19956;-67
2022/09/04 01:20:12;;;;;;;;;;;16.60;99.90;;;;;;5048213;28;19921;-67
2022/09/04 01:22:57;;;;;;;;;;;16.60;99.90;;;;;;5050857;28;19920;-68
2022/09/04 01:25:24;;;;;;;;;;;16.60;99.90;;;;;;5053114;28;20291;-68
2022/09/04 01:28:03;;;;;;;;;;;16.50;99.90;;;;;;5047883;28;19943;-68
2022/09/04 01:30:33;;;;;;;;;;;16.60;99.90;;;;;;5052337;28;20340;-68
2022/09/04 01:33:12;;;;;;;;;;;16.50;99.90;;;;;;5030700;28;19921;-68
2022/09/04 01:35:57;;;;;;;;;;;16.50;99.90;;;;;;5028132;28;19932;-68
2022/09/04 01:38:32;;;;;;;;;;;16.50;99.90;;;;;;5012716;28;20023;-68
2022/09/04 01:41:00;;;;;;;;;;;16.50;99.90;;;;;;5028058;28;19921;-68
2022/09/04 01:43:27;;;;;;;;;;;16.50;99.90;;;;;;5012731;28;19925;-68
2022/09/04 01:46:09;;;;;;;;;;;16.50;99.90;;;;;;5027692;28;19936;-68
2022/09/04 01:48:46;;;;;;;;;;;16.50;99.90;;;;;;5019805;28;19921;-67
2022/09/04 01:51:19;;;;;;;;;;;16.50;99.90;;;;;;5063906;28;21732;-68
2022/09/04 01:53:49;;;;;;;;;;;16.40;99.90;;;;;;5018290;28;19927;-68
2022/09/04 01:56:16;;;;;;;;;;;16.50;99.90;;;;;;5047074;28;19927;-68
2022/09/04 01:58:47;;;;;;;;;;;16.40;99.90;;;;;;5047164;28;20332;-67
2022/09/04 02:01:14;;;;;;;;;;;16.40;99.90;;;;;;5047703;28;19925;-68
2022/09/04 02:03:49;;;;;;;;;;;16.40;99.90;;;;;;5031941;28;19975;-68
2022/09/04 02:06:22;;;;;;;;;;;16.40;99.90;;;;;;5047527;28;19947;-67
2022/09/04 02:09:01;;;;;;;;;;;16.40;99.90;;;;;;5046080;28;19927;-68
2022/09/04 02:11:29;;;;;;;;;;;16.40;99.90;;;;;;5038394;28;19927;-67
2022/09/04 02:14:07;;;;;;;;;;;16.40;99.90;;;;;;5033825;28;19968;-67
2022/09/04 02:16:45;;;;;;;;;;;16.40;99.90;;;;;;5049823;28;20039;-68
2022/09/04 02:19:21;;;;;;;;;;;16.40;99.90;;;;;;5034182;28;19994;-67
2022/09/04 02:22:11;;;;;;;;;;;16.40;99.90;;;;;;5051335;28;20386;-68
2022/09/04 02:24:41;;;;;;;;;;;16.40;99.90;;;;;;5014757;28;19921;-67
2022/09/04 02:27:09;;;;;;;;;;;16.40;99.90;;;;;;5048068;28;19920;-67
2022/09/04 02:29:45;;;;;;;;;;;16.40;99.90;;;;;;5033498;28;19921;-67
2022/09/04 02:32:36;;;;;;;;;;;16.40;99.90;;;;;;5033127;28;19924;-66
2022/09/04 02:35:02;;;;;;;;;;;16.40;99.90;;;;;;5045761;28;19921;-69
2022/09/04 02:37:35;;;;;;;;;;;16.40;99.90;;;;;;5050799;28;19966;-67
2022/09/04 02:40:11;;;;;;;;;;;16.40;99.90;;;;;;5051455;28;20319;-67
2022/09/04 02:42:45;;;;;;;;;;;16.40;99.90;;;;;;5033895;28;19921;-66
2022/09/04 02:45:18;;;;;;;;;;;16.40;99.90;;;;;;5055331;28;19924;-66
2022/09/04 02:47:52;;;;;;;;;;;16.40;99.90;;;;;;5055196;28;19944;-67
2022/09/04 02:50:37;;;;;;;;;;;16.40;99.90;;;;;;5071258;28;19947;-67
2022/09/04 02:53:13;;;;;;;;;;;16.40;99.90;;;;;;5024862;28;19931;-67
2022/09/04 02:56:07;;;;;;;;;;;16.40;99.90;;;;;;5036096;28;20003;-67
2022/09/04 02:58:52;;;;;;;;;;;16.40;99.90;;;;;;5054485;28;19924;-67
2022/09/04 03:01:21;;;;;;;;;;;16.40;99.90;;;;;;5050684;28;19921;-67
2022/09/04 03:03:53;;;;;;;;;;;16.40;99.90;;;;;;5050272;28;19925;-67
2022/09/04 03:06:23;;;;;;;;;;;16.40;99.90;;;;;;5054262;28;19921;-67
2022/09/04 03:08:55;;;;;;;;;;;16.40;99.90;;;;;;5068912;28;19925;-67
2022/09/04 03:11:29;;;;;;;;;;;16.40;99.90;;;;;;5070680;28;19955;-67
2022/09/04 03:14:11;;;;;;;;;;;16.40;99.90;;;;;;5070173;28;19921;-67
2022/09/04 03:16:37;;;;;;;;;;;16.40;99.90;;;;;;5054476;28;19924;-67
2022/09/04 03:19:26;;;;;;;;;;;16.30;99.90;;;;;;5054276;28;20322;-67
2022/09/04 03:21:55;;;;;;;;;;;16.30;99.90;;;;;;5037222;28;19935;-67
2022/09/04 03:24:27;;;;;;;;;;;16.30;99.90;;;;;;5035124;28;19921;-67
2022/09/04 03:26:55;;;;;;;;;;;16.30;99.90;;;;;;5050584;28;19929;-67
2022/09/04 03:29:23;;;;;;;;;;;16.30;99.90;;;;;;5061592;28;19988;-67
2022/09/04 03:32:13;;;;;;;;;;;16.30;99.90;;;;;;5054069;28;20016;-67
2022/09/04 03:34:45;;;;;;;;;;;16.30;99.90;;;;;;5037786;28;19971;-67
2022/09/04 03:37:30;;;;;;;;;;;16.20;99.90;;;;;;5053908;28;19921;-67
2022/09/04 03:40:11;;;;;;;;;;;16.30;99.90;;;;;;5053132;28;19921;-67
2022/09/04 03:42:44;;;;;;;;;;;16.20;99.90;;;;;;5052958;28;19927;-67
2022/09/04 03:45:33;;;;;;;;;;;16.20;99.90;;;;;;5026477;28;20003;-67
2022/09/04 03:48:12;;;;;;;;;;;16.20;99.90;;;;;;5057078;28;19921;-67
2022/09/04 03:50:54;;;;;;;;;;;16.20;99.90;;;;;;5050606;28;20011;-68
2022/09/04 03:53:23;;;;;;;;;;;16.20;99.90;;;;;;5027436;28;19925;-67
2022/09/04 03:56:20;;;;;;;;;;;16.20;99.90;;;;;;5034224;28;19948;-65
2022/09/04 03:58:50;;;;;;;;;;;16.30;99.90;;;;;;5041480;28;19920;-67
2022/09/04 04:01:35;;;;;;;;;;;16.30;99.90;;;;;;5035960;28;19921;-67
2022/09/04 04:04:14;;;;;;;;;;;16.30;99.90;;;;;;5044978;28;19928;-67
2022/09/04 04:06:47;;;;;;;;;;;16.40;99.90;;;;;;5036807;28;19921;-66
2022/09/04 04:09:20;;;;;;;;;;;16.40;99.90;;;;;;5040540;28;20393;-67
2022/09/04 04:11:53;;;;;;;;;;;16.50;99.90;;;;;;5054030;28;19921;-68
2022/09/04 04:14:59;;;;;;;;;;;16.60;99.90;;;;;;5067928;28;19921;-68
2022/09/04 04:17:38;;;;;;;;;;;16.60;99.90;;;;;;5021433;28;19928;-68
2022/09/04 04:20:15;;;;;;;;;;;16.70;99.90;;;;;;5018728;28;19944;-67
2022/09/04 04:23:01;;;;;;;;;;;16.80;99.90;;;;;;5035598;28;19927;-68
2022/09/04 04:25:28;;;;;;;;;;;16.80;99.90;;;;;;5053353;28;19927;-67
2022/09/04 04:28:18;;;;;;;;;;;16.90;99.90;;;;;;5051670;28;19920;-67
2022/09/04 04:30:49;;;;;;;;;;;16.90;99.90;;;;;;5053712;28;19921;-66
2022/09/04 04:33:24;;;;;;;;;;;17.00;99.90;;;;;;5051201;28;19925;-67
2022/09/04 04:36:11;;;;;;;;;;;17.00;99.90;;;;;;5052136;28;19921;-67
2022/09/04 04:38:57;;;;;;;;;;;17.10;99.90;;;;;;5028672;28;19921;-67
2022/09/04 04:42:04;;;;;;;;;;;17.10;99.90;;;;;;5023024;28;19974;-67
2022/09/04 04:47:36;;;;;;;;;;;17.10;99.90;;;;;;5029344;28;19925;-66
2022/09/04 04:50:10;;;;;;;;;;;17.10;99.90;;;;;;5052864;28;19928;-68
2022/09/04 04:52:43;;;;;;;;;;;17.10;99.90;;;;;;5035631;28;19921;-67
2022/09/04 04:55:12;;;;;;;;;;;17.10;99.90;;;;;;5031399;28;19932;-66
2022/09/04 04:58:11;;;;;;;;;;;17.10;99.90;;;;;;5050454;28;20023;-67
2022/09/04 05:00:44;;;;;;;;;;;17.10;99.90;;;;;;5026042;28;20255;-67
2022/09/04 05:03:17;;;;;;;;;;;17.10;99.90;;;;;;5051105;28;19928;-67
2022/09/04 05:05:48;;;;;;;;;;;17.10;99.90;;;;;;5049499;28;20387;-67
2022/09/04 05:08:34;;;;;;;;;;;17.10;99.90;;;;;;5046537;28;19921;-65
2022/09/04 05:11:10;;;;;;;;;;;17.10;99.90;;;;;;5052351;28;19921;-67
2022/09/04 05:13:56;;;;;;;;;;;17.10;99.90;;;;;;5052541;28;20268;-67
2022/09/04 05:16:32;;;;;;;;;;;17.10;99.90;;;;;;5066570;28;19921;-67
2022/09/04 05:19:00;;;;;;;;;;;17.10;99.90;;;;;;5014956;28;19921;-67
2022/09/04 05:21:27;;;;;;;;;;;17.10;99.90;;;;;;5039745;28;19927;-67
2022/09/04 05:24:05;;;;;;;;;;;17.10;99.90;;;;;;5045013;28;19928;-67
2022/09/04 05:26:35;;;;;;;;;;;17.10;99.90;;;;;;5037735;28;19943;-67
2022/09/04 05:29:04;;;;;;;;;;;17.10;99.90;;;;;;5051299;28;19928;-67
2022/09/04 05:31:31;;;;;;;;;;;17.10;99.90;;;;;;5051909;28;19924;-66
2022/09/04 05:34:03;;;;;;;;;;;17.10;99.90;;;;;;5048617;28;19968;-67
2022/09/04 05:36:39;;;;;;;;;;;17.10;99.90;;;;;;5048571;28;20041;-66
2022/09/04 05:39:08;;;;;;;;;;;17.10;99.90;;;;;;5050883;28;19927;-67
2022/09/04 05:41:38;;;;;;;;;;;17.20;99.90;;;;;;5051908;28;19975;-67
2022/09/04 05:44:14;;;;;;;;;;;17.20;99.90;;;;;;5032271;28;20340;-67
2022/09/04 05:46:44;;;;;;;;;;;17.20;99.90;;;;;;5041972;28;19928;-68
2022/09/04 05:49:20;;;;;;;;;;;17.20;99.90;;;;;;5059891;28;19933;-68
2022/09/04 05:51:50;;;;;;;;;;;17.20;99.90;;;;;;5059572;28;19936;-68
2022/09/04 05:54:35;;;;;;;;;;;17.20;99.90;;;;;;5050638;28;19928;-68
2022/09/04 05:57:02;;;;;;;;;;;17.20;99.90;;;;;;5049477;28;19921;-68
2022/09/04 05:59:31;;;;;;;;;;;17.20;99.90;;;;;;5050463;28;19921;-68
2022/09/04 06:02:27;;;;;;;;;;;17.20;99.90;;;;;;5041170;28;19943;-68
2022/09/04 06:05:03;;;;;;;;;;;17.20;99.90;;;;;;5022002;28;19921;-68
2022/09/04 06:07:30;;;;;;;;;;;17.30;99.90;;;;;;4998783;28;19924;-68
2022/09/04 06:09:58;;;;;;;;;;;17.30;99.90;;;;;;5066531;28;19935;-69
2022/09/04 06:12:34;;;;;;;;;;;17.30;99.90;;;;;;5017441;28;19931;-68
2022/09/04 06:15:03;;;;;;;;;;;17.40;99.90;;;;;;5051889;28;19921;-68
2022/09/04 06:17:34;;;;;;;;;;;17.40;99.90;;;;;;5056493;28;19963;-66
2022/09/04 06:20:15;;;;;;;;;;;17.50;99.90;;;;;;5039981;28;19920;-68
2022/09/04 06:22:42;;;;;;;;;;;17.50;99.90;;;;;;5063087;28;20025;-68
2022/09/04 06:25:32;;;;;;;;;;;17.50;99.90;;;;;;5051341;28;20114;-68
2022/09/04 06:28:01;;;;;;;;;;;17.60;99.90;;;;;;5050231;28;20342;-68
2022/09/04 06:30:48;;;;;;;;;;;17.60;99.90;;;;;;5034547;28;19921;-68
2022/09/04 06:33:34;;;;;;;;;;;17.70;99.90;;;;;;5002602;28;19921;-67
2022/09/04 06:36:01;;;;;;;;;;;17.80;99.90;;;;;;5045141;28;19921;-68
2022/09/04 06:38:40;;;;;;;;;;;17.80;99.90;;;;;;5051425;28;19928;-68
2022/09/04 06:41:09;;;;;;;;;;;17.90;99.90;;;;;;5031312;28;19925;-67
2022/09/04 06:43:36;;;;;;;;;;;18.00;99.90;;;;;;5048848;28;19925;-67
2022/09/04 06:46:09;;;;;;;;;;;18.00;99.90;;;;;;5051627;28;20327;-68
2022/09/04 06:48:48;;;;;;;;;;;18.10;99.90;;;;;;5033329;28;19927;-68
2022/09/04 06:51:25;;;;;;;;;;;18.10;99.90;;;;;;5034198;28;19921;-69
2022/09/04 06:53:57;;;;;;;;;;;18.20;99.90;;;;;;5048765;28;20003;-67
2022/09/04 06:56:33;;;;;;;;;;;18.30;99.90;;;;;;5046602;28;19928;-68
2022/09/04 06:59:18;;;;;;;;;;;18.40;99.90;;;;;;5053373;28;19924;-68
2022/09/04 07:01:45;;;;;;;;;;;18.40;99.90;;;;;;5017481;28;20251;-68
2022/09/04 07:04:18;;;;;;;;;;;18.50;99.90;;;;;;5046313;28;20353;-67
2022/09/04 07:06:54;;;;;;;;;;;18.60;99.90;;;;;;5042066;28;19921;-68
2022/09/04 07:09:26;;;;;;;;;;;18.70;99.90;;;;;;5050629;28;19943;-68
2022/09/04 07:12:16;;;;;;;;;;;18.70;99.90;;;;;;5033280;28;19929;-68
2022/09/04 07:14:53;;;;;;;;;;;18.80;99.90;;;;;;5047784;28;19921;-68
2022/09/04 07:17:38;;;;;;;;;;;18.90;99.90;;;;;;5049013;28;19921;-68
2022/09/04 07:20:34;;;;;;;;;;;18.90;99.90;;;;;;5012245;28;19921;-68
2022/09/04 07:23:02;;;;;;;;;;;19.00;99.90;;;;;;5030939;28;19974;-68
2022/09/04 07:25:32;;;;;;;;;;;19.10;99.90;;;;;;5050691;28;19925;-71
2022/09/04 07:27:59;;;;;;;;;;;19.10;99.90;;;;;;5027335;28;19921;-71
2022/09/04 07:30:26;;;;;;;;;;;19.20;99.90;;;;;;5035765;28;19921;-68
2022/09/04 07:32:53;;;;;;;;;;;19.20;99.90;;;;;;5060830;28;19925;-66
2022/09/04 07:35:21;;;;;;;;;;;19.20;99.90;;;;;;5062892;28;19920;-68
2022/09/04 07:37:57;;;;;;;;;;;19.20;99.90;;;;;;5064321;28;19925;-67
2022/09/04 07:40:25;;;;;;;;;;;19.20;99.90;;;;;;5065497;28;19952;-68
2022/09/04 07:43:04;;;;;;;;;;;19.20;99.90;;;;;;5050426;28;19995;-68
2022/09/04 07:45:46;;;;;;;;;;;19.20;99.90;;;;;;5050884;28;19925;-67
2022/09/04 07:48:23;;;;;;;;;;;19.30;99.90;;;;;;5035477;28;19928;-68
2022/09/04 07:51:09;;;;;;;;;;;19.30;99.90;;;;;;5042375;28;19921;-68
2022/09/04 07:53:55;;;;;;;;;;;19.40;99.90;;;;;;5055264;28;19966;-67
2022/09/04 07:56:24;;;;;;;;;;;19.40;99.90;;;;;;5051655;28;19921;-68
2022/09/04 07:58:54;;;;;;;;;;;19.50;99.90;;;;;;5028227;28;20365;-67
2022/09/04 08:01:30;;;;;;;;;;;19.50;99.90;;;;;;5035335;28;19921;-68
2022/09/04 08:04:06;;;;;;;;;;;19.60;99.90;;;;;;5058076;28;19928;-67
2022/09/04 08:06:47;;;;;;;;;;;19.70;99.90;;;;;;5048556;28;19920;-67
2022/09/04 08:09:22;;;;;;;;;;;19.80;99.90;;;;;;5015092;28;19989;-67
2022/09/04 08:12:08;;;;;;;;;;;19.80;99.90;;;;;;5043932;28;19925;-67
2022/09/04 08:14:53;;;;;;;;;;;19.90;99.90;;;;;;5035144;28;19921;-67
2022/09/04 08:17:28;;;;;;;;;;;20.00;99.90;;;;;;5034841;28;19927;-68
2022/09/04 08:19:55;;;;;;;;;;;20.10;99.90;;;;;;5017662;28;19921;-67
2022/09/04 08:22:32;;;;;;;;;;;20.20;99.90;;;;;;5053739;28;20352;-68
2022/09/04 08:25:02;;;;;;;;;;;20.30;99.90;;;;;;5036972;28;19947;-67
2022/09/04 08:27:37;;;;;;;;;;;20.40;99.90;;;;;;5052531;28;19920;-68
2022/09/04 08:30:11;;;;;;;;;;;20.50;99.90;;;;;;5037972;28;19920;-68
2022/09/04 08:32:56;;;;;;;;;;;20.60;99.90;;;;;;5053813;28;19924;-67
2022/09/04 08:35:32;;;;;;;;;;;20.70;99.90;;;;;;5034987;28;19921;-68
2022/09/04 08:38:08;;;;;;;;;;;20.80;99.90;;;;;;5060027;28;19928;-67
2022/09/04 08:40:38;;;;;;;;;;;20.90;99.90;;;;;;5054349;28;19920;-68
2022/09/04 08:43:20;;;;;;;;;;;21.00;99.90;;;;;;5053140;28;19920;-73
2022/09/04 08:45:56;;;;;;;;;;;21.10;99.90;;;;;;5035660;28;19921;-67
2022/09/04 08:48:28;;;;;;;;;;;21.30;99.90;;;;;;5053804;28;20007;-68
2022/09/04 08:51:15;;;;;;;;;;;21.30;99.90;;;;;;5054083;28;19924;-68
2022/09/04 08:54:01;;;;;;;;;;;21.30;99.90;;;;;;5035244;28;19967;-69
2022/09/04 08:56:27;;;;;;;;;;;21.30;99.90;;;;;;5064366;28;19935;-69
2022/09/04 08:59:30;;;;;;;;;;;21.40;99.90;;;;;;5053468;28;20683;-67
2022/09/04 09:02:15;;;;;;;;;;;21.40;99.90;;;;;;4984302;28;19929;-68
2022/09/04 09:04:57;;;;;;;;;;;21.50;99.90;;;;;;5024458;28;20375;-68
2022/09/04 09:07:42;;;;;;;;;;;21.60;99.90;;;;;;5036821;28;19921;-68
2022/09/04 09:10:18;;;;;;;;;;;21.70;99.90;;;;;;5052533;28;19921;-67
2022/09/04 09:12:48;;;;;;;;;;;21.70;99.90;;;;;;5053405;28;19927;-69
2022/09/04 09:15:35;;;;;;;;;;;21.80;99.90;;;;;;5053505;28;19920;-68
2022/09/04 09:18:07;;;;;;;;;;;21.90;99.90;;;;;;5053438;28;19924;-68
2022/09/04 09:20:34;;;;;;;;;;;21.90;99.90;;;;;;5032788;28;20403;-68
2022/09/04 09:23:14;;;;;;;;;;;21.90;99.90;;;;;;5052351;28;19920;-68
2022/09/04 09:26:05;;;;;;;;;;;21.90;99.90;;;;;;5049750;28;19920;-68
2022/09/04 09:28:31;;;;;;;;;;;22.00;99.90;;;;;;5033603;28;20283;-68
2022/09/04 09:31:14;;;;;;;;;;;22.00;99.90;;;;;;5051382;28;20388;-69
2022/09/04 09:33:41;;;;;;;;;;;22.00;99.90;;;;;;5052332;28;19932;-68
2022/09/04 09:36:20;;;;;;;;;;;21.90;99.90;;;;;;5052691;28;19925;-71
2022/09/04 09:39:03;;;;;;;;;;;21.90;99.90;;;;;;5041623;28;20387;-62
2022/09/04 09:41:33;;;;;;;;;;;22.00;99.90;;;;;;5015041;28;19931;-62
2022/09/04 09:44:09;;;;;;;;;;;22.00;99.90;;;;;;5034987;28;19924;-63
2022/09/04 09:46:37;;;;;;;;;;;22.00;99.90;;;;;;5035432;28;19925;-61
2022/09/04 09:49:07;;;;;;;;;;;22.10;99.90;;;;;;5046153;28;19928;-62
2022/09/04 09:51:43;;;;;;;;;;;22.00;99.90;;;;;;5029085;28;19931;-64
2022/09/04 09:54:28;;;;;;;;;;;22.10;99.90;;;;;;5028300;28;19929;-66
2022/09/04 09:57:14;;;;;;;;;;;22.10;99.90;;;;;;5035163;28;19929;-64
2022/09/04 10:00:01;;;;;;;;;;;22.20;99.90;;;;;;5035590;28;19921;-67
2022/09/04 10:02:31;;;;;;;;;;;22.30;99.90;;;;;;5032595;28;19925;-67
2022/09/04 10:05:13;;;;;;;;;;;22.40;99.90;;;;;;5028702;28;19924;-65
2022/09/04 10:08:02;;;;;;;;;;;22.50;99.90;;;;;;5029167;28;19932;-72
2022/09/04 10:10:48;;;;;;;;;;;22.60;99.90;;;;;;5023278;28;19921;-65
2022/09/04 10:13:32;;;;;;;;;;;22.70;99.90;;;;;;5040657;28;20355;-65
2022/09/04 10:16:02;;;;;;;;;;;22.80;99.90;;;;;;5018633;28;19928;-68
2022/09/04 10:18:47;;;;;;;;;;;22.80;99.90;;;;;;5047569;28;19925;-70
2022/09/04 10:21:19;;;;;;;;;;;22.80;99.90;;;;;;5044428;28;19973;-66
2022/09/04 10:24:05;;;;;;;;;;;22.90;99.90;;;;;;5029078;28;19924;-68
2022/09/04 10:26:34;;;;;;;;;;;22.90;99.90;;;;;;5035739;28;20360;-65
2022/09/04 10:29:10;;;;;;;;;;;23.00;99.90;;;;;;5032261;28;19927;-68
2022/09/04 10:31:39;;;;;;;;;;;23.00;99.90;;;;;;5037541;28;19939;-66
2022/09/04 10:34:12;;;;;;;;;;;23.00;99.90;;;;;;5031065;28;19929;-65
2022/09/04 10:36:48;;;;;;;;;;;23.00;99.90;;;;;;5035222;28;19928;-64
2022/09/04 10:42:08;;;;;;;;;;;23.10;99.90;;;;;;5056895;28;20019;-61
2022/09/04 10:44:39;;;;;;;;;;;23.10;99.90;;;;;;5050379;28;19928;-60
2022/09/04 10:47:15;;;;;;;;;;;23.20;99.90;;;;;;5028369;28;19921;-62
2022/09/04 10:50:01;;;;;;;;;;;23.20;99.90;;;;;;5030086;28;19921;-61
2022/09/04 10:52:34;;;;;;;;;;;23.20;99.90;;;;;;5007849;28;19936;-61
2022/09/04 10:55:07;;;;;;;;;;;23.20;99.90;;;;;;5031149;28;20357;-65
2022/09/04 10:57:44;;;;;;;;;;;23.30;99.90;;;;;;5039075;28;19928;-60
2022/09/04 11:00:12;;;;;;;;;;;23.40;99.90;;;;;;5016672;28;19922;-61
2022/09/04 11:03:01;;;;;;;;;;;23.30;99.90;;;;;;5025938;28;20004;-61
2022/09/04 11:05:31;;;;;;;;;;;23.30;99.90;;;;;;5016449;28;19921;-62
2022/09/04 11:08:12;;;;;;;;;;;23.30;99.90;;;;;;5059064;28;20389;-61
2022/09/04 11:10:56;;;;;;;;;;;23.40;99.90;;;;;;5044685;28;19927;-60
2022/09/04 11:13:35;;;;;;;;;;;23.50;99.90;;;;;;5052672;28;19928;-60
2022/09/04 11:16:02;;;;;;;;;;;23.60;99.90;;;;;;5022046;28;20004;-63
2022/09/04 11:18:48;;;;;;;;;;;23.60;99.90;;;;;;5031347;28;19921;-61
2022/09/04 11:21:38;;;;;;;;;;;23.60;99.90;;;;;;5026013;28;19976;-60
2022/09/04 11:24:13;;;;;;;;;;;23.70;99.90;;;;;;5012363;28;19921;-64
2022/09/04 11:27:00;;;;;;;;;;;23.80;99.90;;;;;;5052215;28;19921;-61
2022/09/04 11:29:39;;;;;;;;;;;23.80;99.90;;;;;;5051269;28;19921;-60
2022/09/04 11:32:06;;;;;;;;;;;23.80;99.90;;;;;;5037814;28;19980;-60
2022/09/04 11:34:37;;;;;;;;;;;23.80;99.90;;;;;;5042830;28;19928;-61
2022/09/04 11:37:23;;;;;;;;;;;23.70;99.90;;;;;;5045158;28;19920;-61
2022/09/04 11:40:03;;;;;;;;;;;23.70;99.90;;;;;;5052446;28;19932;-61
2022/09/04 11:42:42;;;;;;;;;;;23.70;99.90;;;;;;5055056;28;19925;-60
2022/09/04 11:45:19;;;;;;;;;;;23.90;99.90;;;;;;5054234;28;19924;-61
2022/09/04 11:48:07;;;;;;;;;;;24.00;99.90;;;;;;5043022;28;19924;-68
2022/09/04 11:50:55;;;;;;;;;;;24.20;99.90;;;;;;5035449;28;19920;-63
2022/09/04 11:53:22;;;;;;;;;;;24.20;99.90;;;;;;5041763;28;19921;-61
2022/09/04 11:56:07;;;;;;;;;;;24.40;99.90;;;;;;5036842;28;19928;-61
2022/09/04 11:58:53;;;;;;;;;;;24.60;99.90;;;;;;5051849;28;19928;-61
2022/09/04 12:01:28;;;;;;;;;;;24.60;99.90;;;;;;5035417;28;19924;-66
2022/09/04 12:04:07;;;;;;;;;;;24.70;99.90;;;;;;5034363;28;20391;-61
2022/09/04 12:06:53;;;;;;;;;;;24.80;99.90;;;;;;5049158;28;19979;-62
2022/09/04 12:09:29;;;;;;;;;;;24.90;99.90;;;;;;5022148;28;20304;-65
2022/09/04 12:11:59;;;;;;;;;;;25.00;99.90;;;;;;5039782;28;19927;-62
2022/09/04 12:14:55;;;;;;;;;;;24.90;99.90;;;;;;5041301;28;20399;-65
2022/09/04 12:17:27;;;;;;;;;;;24.80;99.90;;;;;;5031602;28;19924;-63
2022/09/04 12:20:13;;;;;;;;;;;24.60;99.90;;;;;;5034574;28;19921;-65
2022/09/04 12:22:50;;;;;;;;;;;24.60;99.90;;;;;;5019698;28;19928;-61
2022/09/04 12:25:36;;;;;;;;;;;24.50;99.90;;;;;;5031861;28;19928;-61
2022/09/04 12:28:15;;;;;;;;;;;24.40;99.90;;;;;;5037126;28;19943;-61
2022/09/04 12:31:01;;;;;;;;;;;24.40;99.90;;;;;;5028357;28;20368;-61
2022/09/04 12:33:36;;;;;;;;;;;24.50;99.90;;;;;;5041671;28;19953;-73
2022/09/04 12:36:22;;;;;;;;;;;24.60;99.90;;;;;;5037117;28;19925;-68
2022/09/04 12:38:48;;;;;;;;;;;24.60;99.90;;;;;;5046068;28;19927;-66
2022/09/04 12:41:15;;;;;;;;;;;24.70;99.90;;;;;;5035779;28;20380;-66
2022/09/04 12:43:48;;;;;;;;;;;24.80;99.90;;;;;;5053536;28;19921;-69
2022/09/04 12:46:17;;;;;;;;;;;25.00;99.90;;;;;;5052723;28;20442;-72
2022/09/04 12:48:55;;;;;;;;;;;25.00;99.90;;;;;;5036047;28;19955;-74
2022/09/04 12:51:25;;;;;;;;;;;25.00;99.90;;;;;;5002890;28;19921;-75
2022/09/04 12:53:58;;;;;;;;;;;25.10;99.90;;;;;;5048662;28;19968;-76
2022/09/04 12:56:41;;;;;;;;;;;25.10;99.90;;;;;;5021822;28;20478;-75
2022/09/04 12:59:28;;;;;;;;;;;25.10;99.90;;;;;;5025976;28;19921;-75
2022/09/04 13:02:08;;;;;;;;;;;25.10;99.90;;;;;;5034155;28;19925;-75
2022/09/04 13:04:37;;;;;;;;;;;25.20;99.90;;;;;;4999517;28;19927;-75
2022/09/04 13:07:13;;;;;;;;;;;25.20;99.90;;;;;;5013870;28;19928;-75
2022/09/04 13:09:52;;;;;;;;;;;25.20;99.90;;;;;;5029026;28;19925;-75
2022/09/04 13:12:28;;;;;;;;;;;25.20;99.90;;;;;;4997007;28;20303;-74
2022/09/04 13:14:58;;;;;;;;;;;25.10;99.90;;;;;;5014105;28;19936;-72
2022/09/04 13:17:33;;;;;;;;;;;25.30;99.90;;;;;;5029879;28;19921;-74
2022/09/04 13:20:04;;;;;;;;;;;25.40;99.90;;;;;;5014026;28;20292;-74
2022/09/04 13:22:44;;;;;;;;;;;25.50;99.90;;;;;;5013691;28;20004;-74
2022/09/04 13:25:26;;;;;;;;;;;25.40;99.90;;;;;;5026602;28;19921;-74
2022/09/04 13:28:11;;;;;;;;;;;25.40;99.90;;;;;;5028082;28;19926;-70
2022/09/04 13:30:46;;;;;;;;;;;25.30;99.90;;;;;;5014205;28;19921;-74
2022/09/04 13:33:25;;;;;;;;;;;25.20;99.90;;;;;;5013457;28;19921;-73
2022/09/04 13:36:06;;;;;;;;;;;25.20;99.90;;;;;;5012771;28;19925;-74
2022/09/04 13:38:51;;;;;;;;;;;25.10;99.90;;;;;;5024930;28;19928;-74
2022/09/04 13:41:33;;;;;;;;;;;25.00;99.90;;;;;;5013751;28;19936;-74
2022/09/04 13:44:04;;;;;;;;;;;25.00;99.90;;;;;;5013611;28;20015;-73
2022/09/04 13:46:35;;;;;;;;;;;24.90;99.90;;;;;;5013793;28;19933;-74
2022/09/04 13:49:07;;;;;;;;;;;24.80;99.90;;;;;;5012364;28;20339;-81
2022/09/04 13:51:42;;;;;;;;;;;24.70;99.90;;;;;;5028308;28;19921;-75
2022/09/04 13:54:13;;;;;;;;;;;24.70;99.90;;;;;;5025174;28;19976;-78
2022/09/04 13:57:00;;;;;;;;;;;24.70;99.90;;;;;;5044244;28;19927;-78
2022/09/04 13:59:28;;;;;;;;;;;24.60;99.90;;;;;;5020860;28;19921;-76
2022/09/04 14:01:57;;;;;;;;;;;24.70;99.90;;;;;;5026851;28;19928;-76
2022/09/04 14:04:26;;;;;;;;;;;24.70;99.90;;;;;;5033626;28;19947;-76
2022/09/04 14:07:04;;;;;;;;;;;24.70;99.90;;;;;;5035982;28;19967;-76
2022/09/04 14:09:32;;;;;;;;;;;24.80;99.90;;;;;;5047871;28;20376;-76
2022/09/04 14:12:12;;;;;;;;;;;24.80;99.90;;;;;;5048292;28;19925;-77
2022/09/04 14:14:42;;;;;;;;;;;24.80;99.90;;;;;;5033098;28;20276;-77
2022/09/04 14:17:09;;;;;;;;;;;24.80;99.90;;;;;;5047772;28;19935;-76
2022/09/04 14:19:45;;;;;;;;;;;24.80;99.90;;;;;;5047659;28;19976;-75
2022/09/04 14:22:27;;;;;;;;;;;25.00;99.90;;;;;;5032512;28;19921;-77
2022/09/04 14:25:02;;;;;;;;;;;25.10;99.90;;;;;;5046006;28;19921;-74
2022/09/04 14:27:44;;;;;;;;;;;25.10;99.90;;;;;;5046487;28;19924;-77
2022/09/04 14:30:21;;;;;;;;;;;25.10;99.90;;;;;;5014459;28;19982;-76
2022/09/04 14:32:54;;;;;;;;;;;25.00;99.90;;;;;;5047302;28;20376;-76
2022/09/04 14:35:41;;;;;;;;;;;24.80;99.90;;;;;;5047090;28;19921;-76
2022/09/04 14:38:23;;;;;;;;;;;24.70;99.90;;;;;;5047128;28;19921;-74
2022/09/04 14:40:50;;;;;;;;;;;24.60;99.90;;;;;;5040488;28;19932;-75
2022/09/04 14:43:23;;;;;;;;;;;24.60;99.90;;;;;;5025619;28;20376;-73
2022/09/04 14:45:50;;;;;;;;;;;24.60;99.90;;;;;;5025096;28;19925;-75
2022/09/04 14:48:20;;;;;;;;;;;24.60;99.90;;;;;;5027127;28;19921;-74
2022/09/04 14:50:51;;;;;;;;;;;24.60;99.90;;;;;;5031647;28;19928;-75
2022/09/04 14:53:20;;;;;;;;;;;24.80;99.90;;;;;;5013888;28;19925;-75
2022/09/04 14:56:19;;;;;;;;;;;24.80;99.90;;;;;;5023901;28;19921;-76
2022/09/04 14:58:57;;;;;;;;;;;24.90;99.90;;;;;;5005530;28;20039;-73
2022/09/04 15:01:24;;;;;;;;;;;24.90;99.90;;;;;;5021458;28;20369;-75
2022/09/04 15:04:00;;;;;;;;;;;24.90;99.90;;;;;;5029472;28;19921;-74
2022/09/04 15:06:31;;;;;;;;;;;25.00;99.90;;;;;;5046859;28;19921;-74
2022/09/04 15:09:24;;;;;;;;;;;25.10;99.90;;;;;;5041147;28;19932;-75
2022/09/04 15:11:54;;;;;;;;;;;25.20;99.90;;;;;;5066792;28;20499;-69
2022/09/04 15:14:41;;;;;;;;;;;25.20;99.90;;;;;;5018277;28;20403;-75